Bradenton, Florida
Current Conditions -  °F | °C
As of 10:53 PM on Wednesday 22 Oct 2014 (Local Time) from KSRQ Reporting Station
Clear Clear  
Wind Chill: 74°   Ceiling: Unl
Heat Index: 74°   Visibility: 10mi
Dew Point: 64°   Wind: 9mph
Humidity: 71%   Direction: 40°NE
Pressure: 29.95"   Gusts: NA
Location:  27.5°N, 82.58°W
Report Text: KSRQ 230253Z 04008KT 10SM CLR 23/18 A2995 RMK AO2 SLP140 T02330178 51007
Loading
Personal Weather Stations






























Interactive Weather Map New forecast layout! Learn more

10-Day Weather Forecast

Advertisements
Track Severe Weather on mobile